createdAt,value
2019-01-28T00:01:09.920Z,98284.63
2019-01-28T00:03:37.146Z,98285.06
2019-01-28T00:06:04.655Z,98287.30
2019-01-28T00:08:31.924Z,98284.31
2019-01-28T00:10:59.141Z,98283.50
2019-01-28T00:13:26.352Z,98282.20
2019-01-28T00:15:53.687Z,98284.45
2019-01-28T00:18:20.893Z,98288.72
2019-01-28T00:20:48.137Z,98282.14
2019-01-28T00:23:15.826Z,98291.41
2019-01-28T00:25:43.690Z,98292.34
2019-01-28T00:28:10.881Z,98287.61
2019-01-28T00:30:38.130Z,98286.41
2019-01-28T00:33:05.359Z,98281.52
2019-01-28T00:35:32.678Z,98289.00
2019-01-28T00:37:59.991Z,98283.31
2019-01-28T00:40:27.194Z,98285.08
2019-01-28T00:42:54.389Z,98288.59
2019-01-28T00:45:22.330Z,98280.76
2019-01-28T00:47:49.541Z,98286.47
2019-01-28T00:50:16.786Z,98286.01
2019-01-28T00:52:43.996Z,98291.66
2019-01-28T00:55:11.836Z,98283.47
2019-01-28T00:57:39.076Z,98290.88
2019-01-28T01:00:10.202Z,98291.30
2019-01-28T01:02:37.422Z,98293.47
2019-01-28T01:05:04.879Z,98287.31
2019-01-28T01:07:32.096Z,98289.53
2019-01-28T01:09:59.308Z,98289.13
2019-01-28T01:12:26.574Z,98291.27
2019-01-28T01:14:53.786Z,98292.12
2019-01-28T01:17:21.021Z,98294.83
2019-01-28T01:19:48.295Z,98293.58
2019-01-28T01:22:15.531Z,98292.75
2019-01-28T01:24:42.735Z,98296.25
2019-01-28T01:27:09.988Z,98299.28
2019-01-28T01:29:37.186Z,98303.22
2019-01-28T01:32:04.395Z,98298.80
2019-01-28T01:34:31.629Z,98304.48
2019-01-28T01:36:58.839Z,98302.30
2019-01-28T01:39:26.044Z,98309.77
2019-01-28T01:41:53.280Z,98308.86
2019-01-28T01:44:20.488Z,98310.66
2019-01-28T01:46:47.736Z,98311.98
2019-01-28T01:49:14.933Z,98314.58
2019-01-28T01:51:42.140Z,98317.67
2019-01-28T01:54:09.390Z,98313.34
2019-01-28T01:56:36.677Z,98321.19
2019-01-28T01:59:04.091Z,98321.04
2019-01-28T02:01:31.353Z,98318.57
2019-01-28T02:03:58.555Z,98318.91
2019-01-28T02:06:25.750Z,98319.39
2019-01-28T02:08:53.014Z,98320.77
2019-01-28T02:11:20.229Z,98322.51
2019-01-28T02:13:47.446Z,98329.52
2019-01-28T02:16:14.670Z,98338.27
2019-01-28T02:18:41.881Z,98339.87
2019-01-28T02:21:09.419Z,98338.66
2019-01-28T02:23:36.644Z,98340.47
2019-01-28T02:26:03.875Z,98337.03
2019-01-28T02:28:31.081Z,98343.62
2019-01-28T02:30:58.445Z,98343.67
2019-01-28T02:33:36.729Z,98343.25
2019-01-28T02:36:04.156Z,98348.09
2019-01-28T02:38:31.383Z,98345.48
2019-01-28T02:40:58.584Z,98350.73
2019-01-28T02:43:25.836Z,98358.14
2019-01-28T02:45:53.052Z,98348.59
2019-01-28T02:48:20.265Z,98349.45
2019-01-28T02:50:47.548Z,98356.47
2019-01-28T02:53:14.761Z,98361.25
2019-01-28T02:55:42.046Z,98367.37
2019-01-28T02:58:09.328Z,98370.87
2019-01-28T03:00:36.524Z,98363.47
2019-01-28T03:03:03.839Z,98363.91
2019-01-28T03:05:31.112Z,98369.59
2019-01-28T03:07:58.338Z,98373.50
2019-01-28T03:10:25.646Z,98379.59
2019-01-28T03:12:52.906Z,98385.27
2019-01-28T03:15:20.219Z,98389.05
2019-01-28T03:17:47.842Z,98388.04
2019-01-28T03:20:15.348Z,98390.12
2019-01-28T03:22:42.707Z,98394.98
2019-01-28T03:25:11.023Z,98401.05
2019-01-28T03:27:40.298Z,98402.33
2019-01-28T03:30:10.457Z,98411.77
2019-01-28T03:32:37.673Z,98409.49
2019-01-28T03:35:05.509Z,98413.41
2019-01-28T03:37:32.737Z,98417.70
2019-01-28T03:39:59.953Z,98423.28
2019-01-28T03:42:27.214Z,98429.40
2019-01-28T03:44:54.411Z,98439.34
2019-01-28T03:47:21.628Z,98437.48
2019-01-28T03:49:48.871Z,98455.72
2019-01-28T03:52:16.757Z,98454.19
2019-01-28T03:54:44.003Z,98460.34
2019-01-28T03:57:11.269Z,98467.67
2019-01-28T03:59:38.468Z,98478.97
2019-01-28T04:02:05.686Z,98477.27
2019-01-28T04:04:32.940Z,98491.66
2019-01-28T04:07:00.143Z,98491.02
2019-01-28T04:09:27.366Z,98489.02
2019-01-28T04:11:54.619Z,98491.19
2019-01-28T04:14:21.834Z,98490.05
2019-01-28T04:16:49.054Z,98495.60
2019-01-28T04:19:16.283Z,98504.02
2019-01-28T04:21:43.497Z,98497.42
2019-01-28T04:24:10.803Z,98504.41
2019-01-28T04:26:38.040Z,98508.11
2019-01-28T04:29:05.248Z,98509.48
2019-01-28T04:31:32.513Z,98515.53
2019-01-28T04:33:59.717Z,98514.55
2019-01-28T04:36:26.940Z,98521.93
2019-01-28T04:38:56.165Z,98517.50
2019-01-28T04:41:23.405Z,98524.22
2019-01-28T04:43:50.612Z,98527.34
2019-01-28T04:46:17.906Z,98534.37
2019-01-28T04:48:45.169Z,98536.73
2019-01-28T04:51:12.373Z,98546.84
2019-01-28T04:53:39.588Z,98549.66
2019-01-28T04:56:06.873Z,98555.45
2019-01-28T04:58:34.142Z,98559.89
2019-01-28T05:01:01.393Z,98567.84
2019-01-28T05:03:28.643Z,98568.93
2019-01-28T05:05:55.855Z,98576.83
2019-01-28T05:08:23.074Z,98589.17
2019-01-28T05:10:50.315Z,98601.47
2019-01-28T05:13:17.534Z,98606.24
2019-01-28T05:15:44.741Z,98607.20
2019-01-28T05:18:11.980Z,98617.50
2019-01-28T05:20:39.208Z,98616.63
2019-01-28T05:23:06.413Z,98622.31
2019-01-28T05:25:33.684Z,98627.58
2019-01-28T05:28:00.936Z,98628.74
2019-01-28T05:30:28.244Z,98635.80
2019-01-28T05:32:55.507Z,98642.73
2019-01-28T05:35:22.922Z,98647.13
2019-01-28T05:37:50.347Z,98650.41
2019-01-28T05:40:22.187Z,98648.30
2019-01-28T05:42:49.478Z,98659.39
2019-01-28T05:45:17.178Z,98657.08
2019-01-28T05:47:44.552Z,98660.49
2019-01-28T05:50:12.467Z,98664.94
2019-01-28T05:52:39.665Z,98673.63
2019-01-28T05:55:07.829Z,98674.55
2019-01-28T05:57:35.079Z,98678.71
2019-01-28T06:00:02.875Z,98688.98
2019-01-28T06:02:30.082Z,98693.13
2019-01-28T06:04:57.287Z,98695.21
2019-01-28T06:07:24.550Z,98698.09
2019-01-28T06:09:51.785Z,98704.23
2019-01-28T06:12:19.058Z,98717.47
2019-01-28T06:14:46.331Z,98721.55
2019-01-28T06:17:13.556Z,98722.23
2019-01-28T06:19:40.819Z,98730.03
2019-01-28T06:22:08.031Z,98740.52
2019-01-28T06:24:35.254Z,98739.55
2019-01-28T06:27:02.537Z,98751.05
2019-01-28T06:29:29.795Z,98753.93
2019-01-28T06:31:57.017Z,98757.84
2019-01-28T06:34:24.323Z,98766.41
2019-01-28T06:36:51.540Z,98770.64
2019-01-28T06:39:18.749Z,98773.52
2019-01-28T06:41:46.025Z,98770.00
2019-01-28T06:44:13.237Z,98776.02
2019-01-28T06:46:40.459Z,98780.84
2019-01-28T06:49:07.738Z,98781.50
2019-01-28T06:51:34.957Z,98787.04
2019-01-28T06:54:02.450Z,98789.70
2019-01-28T06:56:29.688Z,98785.63
2019-01-28T06:58:56.968Z,98801.55
2019-01-28T07:01:24.318Z,98796.89
2019-01-28T07:03:51.555Z,98810.66
2019-01-28T07:06:18.808Z,98810.94
2019-01-28T07:08:46.026Z,98816.92
2019-01-28T07:11:13.246Z,98826.45
2019-01-28T07:13:40.486Z,98840.53
2019-01-28T07:16:07.679Z,98842.38
2019-01-28T07:18:34.947Z,98846.73
2019-01-28T07:21:02.159Z,98852.81
2019-01-28T07:23:29.389Z,98869.06
2019-01-28T07:25:56.629Z,98873.17
2019-01-28T07:28:23.906Z,98868.59
2019-01-28T07:30:51.116Z,98866.94
2019-01-28T07:33:18.327Z,98879.59
2019-01-28T07:35:45.595Z,98883.98
2019-01-28T07:38:12.853Z,98886.09
2019-01-28T07:40:40.051Z,98889.83
2019-01-28T07:43:07.430Z,98899.62
2019-01-28T07:45:45.095Z,98902.98
2019-01-28T07:48:06.827Z,98903.03
2019-01-28T07:50:34.062Z,98912.16
2019-01-28T07:53:01.293Z,98909.00
2019-01-28T07:55:28.538Z,98914.34
2019-01-28T07:57:55.929Z,98925.13
2019-01-28T08:00:25.000Z,98931.14
2019-01-28T08:02:52.471Z,98928.19
2019-01-28T08:05:19.821Z,98928.97
2019-01-28T08:07:47.166Z,98931.22
2019-01-28T08:10:15.447Z,98927.17
2019-01-28T08:12:43.101Z,98936.10
2019-01-28T08:15:12.586Z,98927.37
2019-01-28T08:17:39.845Z,98923.94
2019-01-28T08:20:11.563Z,98926.48
2019-01-28T08:22:38.996Z,98928.45
2019-01-28T08:25:07.787Z,98925.12
2019-01-28T08:27:35.278Z,98935.28
2019-01-28T08:30:03.814Z,98941.86
2019-01-28T08:32:31.078Z,98958.19
2019-01-28T08:35:00.524Z,98960.59
2019-01-28T08:37:27.768Z,98967.82
2019-01-28T08:39:55.741Z,98973.13
2019-01-28T08:42:23.074Z,98975.38
2019-01-28T08:44:50.342Z,98990.70
2019-01-28T08:47:17.612Z,98998.22
2019-01-28T08:52:26.660Z,99017.90
2019-01-28T08:54:53.884Z,99026.67
2019-01-28T08:57:21.130Z,99037.22
2019-01-28T08:59:48.409Z,99032.76
2019-01-28T09:02:15.640Z,99038.63
2019-01-28T09:04:42.859Z,99051.52
2019-01-28T09:07:10.104Z,99067.97
2019-01-28T09:09:37.435Z,99087.50
2019-01-28T09:12:04.867Z,99084.09
2019-01-28T09:14:32.213Z,99083.67
2019-01-28T09:16:59.776Z,99100.86
2019-01-28T09:19:28.236Z,99093.20
2019-01-28T09:21:55.551Z,99098.83
2019-01-28T09:24:22.757Z,99111.06
2019-01-28T09:26:50.017Z,99125.89
2019-01-28T09:29:17.239Z,99113.60
2019-01-28T09:31:44.538Z,99129.88
2019-01-28T09:34:11.825Z,99134.30
2019-01-28T09:36:39.434Z,99138.42
2019-01-28T09:39:07.660Z,99152.00
2019-01-28T09:41:35.717Z,99166.84
2019-01-28T09:44:03.367Z,99168.91
2019-01-28T09:46:30.567Z,99180.86
2019-01-28T09:48:57.806Z,99194.78
2019-01-28T09:51:25.083Z,99189.73
2019-01-28T09:53:52.291Z,99203.23
2019-01-28T09:56:19.709Z,99196.15
2019-01-28T09:58:47.227Z,99211.58
2019-01-28T10:01:14.583Z,99207.14
2019-01-28T10:03:41.823Z,99232.41
2019-01-28T10:06:09.346Z,99238.41
2019-01-28T10:08:36.568Z,99240.03
2019-01-28T10:11:03.868Z,99242.95
2019-01-28T10:13:31.260Z,99249.14
2019-01-28T10:15:58.482Z,99260.94
2019-01-28T10:18:25.690Z,99258.95
2019-01-28T10:20:52.935Z,99273.69
2019-01-28T10:23:20.219Z,99280.38
2019-01-28T10:25:47.466Z,99277.27
2019-01-28T10:28:14.715Z,99286.95
2019-01-28T10:30:42.427Z,99285.68
2019-01-28T10:33:09.952Z,99296.42
2019-01-28T10:35:38.288Z,99306.77
2019-01-28T10:38:06.443Z,99315.52
2019-01-28T10:40:35.012Z,99314.83
2019-01-28T10:43:02.403Z,99309.98
2019-01-28T10:45:29.634Z,99329.38
2019-01-28T10:48:00.668Z,99326.93
2019-01-28T10:50:27.253Z,99342.16
2019-01-28T10:52:54.499Z,99352.22
2019-01-28T10:55:22.174Z,99356.64
2019-01-28T10:57:49.625Z,99350.75
2019-01-28T11:00:28.143Z,99362.47
2019-01-28T11:02:55.600Z,99368.42
2019-01-28T11:05:23.017Z,99367.74
2019-01-28T11:07:50.379Z,99379.66
2019-01-28T11:10:18.689Z,99380.92
2019-01-28T11:12:46.042Z,99387.37
2019-01-28T11:15:16.773Z,99390.91
2019-01-28T11:17:44.354Z,99388.64
2019-01-28T11:20:11.925Z,99398.63
2019-01-28T11:22:39.154Z,99401.17
2019-01-28T11:25:10.478Z,99418.19
2019-01-28T11:27:37.853Z,99421.20
2019-01-28T11:30:12.877Z,99424.39
2019-01-28T11:32:40.196Z,99418.54
2019-01-28T11:35:08.166Z,99436.83
2019-01-28T11:37:35.384Z,99434.31
2019-01-28T11:40:03.299Z,99448.73
2019-01-28T11:42:30.754Z,99447.31
2019-01-28T11:44:58.301Z,99465.92
2019-01-28T11:47:25.648Z,99472.55
2019-01-28T11:49:53.008Z,99475.95
2019-01-28T11:52:20.303Z,99487.50
2019-01-28T11:54:47.510Z,99494.46
2019-01-28T11:57:14.715Z,99504.94
2019-01-28T11:59:41.954Z,99511.02
2019-01-28T12:02:09.197Z,99514.92
2019-01-28T12:04:36.459Z,99526.09
2019-01-28T12:07:04.060Z,99517.17
2019-01-28T12:09:31.254Z,99519.17
2019-01-28T12:11:58.504Z,99529.48
2019-01-28T12:14:25.707Z,99530.55
2019-01-28T12:16:52.907Z,99533.77
2019-01-28T12:19:20.147Z,99538.52
2019-01-28T12:21:47.384Z,99532.62
2019-01-28T12:24:14.591Z,99539.42
2019-01-28T12:26:41.869Z,99546.07
2019-01-28T12:29:11.667Z,99556.55
2019-01-28T12:31:39.571Z,99566.66
2019-01-28T12:34:07.291Z,99574.63
2019-01-28T12:36:35.139Z,99563.92
2019-01-28T12:39:04.892Z,99580.59
2019-01-28T12:41:34.961Z,99577.77
2019-01-28T12:44:02.210Z,99581.39
2019-01-28T12:46:29.539Z,99599.00
2019-01-28T12:48:56.799Z,99604.77
2019-01-28T12:51:25.330Z,99598.73
2019-01-28T12:53:54.076Z,99608.22
2019-01-28T12:56:21.330Z,99615.63
2019-01-28T12:58:50.023Z,99608.25
2019-01-28T13:01:17.580Z,99618.49
2019-01-28T13:03:44.948Z,99628.22
2019-01-28T13:06:12.215Z,99632.36
2019-01-28T13:08:40.597Z,99642.03
2019-01-28T13:11:07.965Z,99641.91
2019-01-28T13:13:35.192Z,99655.05
2019-01-28T13:16:02.532Z,99648.69
2019-01-28T13:18:29.784Z,99650.45
2019-01-28T13:20:57.011Z,99649.53
2019-01-28T13:23:24.343Z,99658.52
2019-01-28T13:25:51.729Z,99658.87
2019-01-28T13:28:20.751Z,99670.12
2019-01-28T13:30:48.073Z,99668.02
2019-01-28T13:33:17.336Z,99664.50
2019-01-28T13:35:44.767Z,99669.84
2019-01-28T13:38:12.020Z,99669.31
2019-01-28T13:40:39.696Z,99683.93
2019-01-28T13:43:07.017Z,99688.37
2019-01-28T13:45:34.649Z,99690.63
2019-01-28T13:48:03.560Z,99692.08
2019-01-28T13:50:30.789Z,99696.82
2019-01-28T13:52:58.143Z,99703.11
2019-01-28T13:55:25.366Z,99707.89
2019-01-28T13:57:52.591Z,99709.73
2019-01-28T14:00:24.541Z,99724.59
2019-01-28T14:02:52.242Z,99728.69
2019-01-28T14:05:19.556Z,99724.13
2019-01-28T14:07:47.020Z,99736.72
2019-01-28T14:10:14.766Z,99744.42
2019-01-28T14:12:41.965Z,99745.00
2019-01-28T14:15:13.672Z,99757.79
2019-01-28T14:17:40.871Z,99758.17
2019-01-28T14:20:10.940Z,99755.06
2019-01-28T14:22:38.167Z,99773.48
2019-01-28T14:25:06.811Z,99774.72
2019-01-28T14:27:34.108Z,99775.79
2019-01-28T14:30:01.425Z,99783.06
2019-01-28T14:32:28.651Z,99783.98
2019-01-28T14:34:55.910Z,99791.91
2019-01-28T14:37:23.108Z,99786.63
2019-01-28T14:39:50.390Z,99798.30
2019-01-28T14:42:17.684Z,99794.40
2019-01-28T14:44:44.967Z,99811.87
2019-01-28T14:47:12.191Z,99810.41
2019-01-28T14:49:39.468Z,99806.34
2019-01-28T14:52:06.665Z,99810.79
2019-01-28T14:54:33.883Z,99808.65
2019-01-28T14:57:01.246Z,99818.95
2019-01-28T14:59:28.507Z,99814.81
2019-01-28T15:01:55.732Z,99821.56
2019-01-28T15:04:22.939Z,99826.30
2019-01-28T15:06:50.218Z,99832.93
2019-01-28T15:09:17.459Z,99838.38
2019-01-28T15:11:44.705Z,99847.38
2019-01-28T15:14:11.976Z,99853.27
2019-01-28T15:16:39.187Z,99859.09
2019-01-28T15:19:06.411Z,99864.62
2019-01-28T15:21:33.961Z,99865.27
2019-01-28T15:24:01.292Z,99865.34
2019-01-28T15:26:28.571Z,99873.66
2019-01-28T15:28:55.837Z,99864.77
2019-01-28T15:31:23.098Z,99875.81
2019-01-28T15:33:50.327Z,99875.84
2019-01-28T15:36:17.549Z,99878.98
2019-01-28T15:38:44.919Z,99890.68
2019-01-28T15:41:13.200Z,99888.15
2019-01-28T15:43:40.437Z,99892.52
2019-01-28T15:46:07.673Z,99889.53
2019-01-28T15:48:34.888Z,99902.94
2019-01-28T15:51:02.686Z,99909.61
2019-01-28T15:53:30.225Z,99911.03
2019-01-28T15:55:57.718Z,99907.34
2019-01-28T15:58:25.097Z,99907.57
2019-01-28T16:00:52.484Z,99912.44
2019-01-28T16:03:20.351Z,99916.93
2019-01-28T16:05:47.566Z,99920.38
2019-01-28T16:08:14.827Z,99913.56
2019-01-28T16:10:42.228Z,99923.45
2019-01-28T16:13:09.417Z,99920.45
2019-01-28T16:15:41.922Z,99930.75
2019-01-28T16:18:09.584Z,99934.41
2019-01-28T16:20:37.529Z,99936.70
2019-01-28T16:23:05.660Z,99939.96
2019-01-28T16:25:32.868Z,99936.80
2019-01-28T16:28:00.145Z,99949.40
2019-01-28T16:30:28.260Z,99946.38
2019-01-28T16:32:55.565Z,99954.81
2019-01-28T16:35:22.961Z,99960.48
2019-01-28T16:37:50.802Z,99963.59
2019-01-28T16:40:19.605Z,99967.70
2019-01-28T16:42:47.035Z,99975.23
2019-01-28T16:45:15.083Z,99982.41
2019-01-28T16:47:42.312Z,99985.73
2019-01-28T16:50:11.780Z,99988.05
2019-01-28T16:52:39.412Z,99994.02
2019-01-28T16:55:08.221Z,99995.89
2019-01-28T16:57:35.449Z,99996.84
2019-01-28T17:00:05.344Z,100000.96
2019-01-28T17:02:32.573Z,99995.34
2019-01-28T17:04:59.778Z,100010.20
2019-01-28T17:07:27.058Z,100051.92
2019-01-28T17:09:54.493Z,100064.34
2019-01-28T17:12:21.911Z,100056.31
2019-01-28T17:14:49.131Z,100040.91
2019-01-28T17:17:16.421Z,100039.61
2019-01-28T17:19:43.636Z,100050.45
2019-01-28T17:22:10.880Z,100057.14
2019-01-28T17:24:40.941Z,100062.57
2019-01-28T17:27:08.279Z,100056.91
2019-01-28T17:29:35.913Z,100064.19
2019-01-28T17:32:03.254Z,100070.09
2019-01-28T17:34:30.467Z,100078.36
2019-01-28T17:36:57.706Z,100088.91
2019-01-28T17:39:27.036Z,100090.67
2019-01-28T17:41:54.307Z,100096.40
2019-01-28T17:44:21.792Z,100099.64
2019-01-28T17:46:49.412Z,100096.53
2019-01-28T17:49:16.622Z,100097.65
2019-01-28T17:51:43.890Z,100100.25
2019-01-28T17:54:11.129Z,100102.47
2019-01-28T17:56:38.358Z,100100.94
2019-01-28T17:59:05.794Z,100112.50
2019-01-28T18:01:33.285Z,100112.97
2019-01-28T18:04:00.651Z,100117.90
2019-01-28T18:06:27.918Z,100116.55
2019-01-28T18:08:55.146Z,100117.70
2019-01-28T18:11:22.368Z,100118.48
2019-01-28T18:13:49.638Z,100114.17
2019-01-28T18:16:17.224Z,100121.50
2019-01-28T18:18:44.777Z,100120.19
2019-01-28T18:21:12.020Z,100124.70
2019-01-28T18:23:52.387Z,100128.91
2019-01-28T18:26:19.903Z,100123.64
2019-01-28T18:28:48.558Z,100122.97
2019-01-28T18:31:17.768Z,100131.89
2019-01-28T18:33:45.018Z,100148.84
2019-01-28T18:36:12.463Z,100154.73
2019-01-28T18:38:39.671Z,100166.63
2019-01-28T18:41:06.929Z,100165.89
2019-01-28T18:43:34.236Z,100163.83
2019-01-28T18:46:01.643Z,100158.09
2019-01-28T18:48:28.879Z,100163.14
2019-01-28T18:50:59.743Z,100161.84
2019-01-28T18:53:25.305Z,100165.04
2019-01-28T18:55:52.525Z,100172.46
2019-01-28T18:58:19.741Z,100168.30
2019-01-28T19:00:46.984Z,100171.18
2019-01-28T19:03:14.202Z,100175.73
2019-01-28T19:06:09.881Z,100183.91
2019-01-28T19:09:08.646Z,100183.69
2019-01-28T19:11:54.160Z,100190.42
2019-01-28T19:14:52.956Z,100196.56
2019-01-28T19:17:48.869Z,100204.08
2019-01-28T19:20:26.730Z,100202.13
2019-01-28T19:22:53.972Z,100202.84
2019-01-28T19:25:21.212Z,100202.48
2019-01-28T19:27:48.464Z,100206.21
2019-01-28T19:30:18.202Z,100204.91
2019-01-28T19:32:45.418Z,100204.67
2019-01-28T19:35:12.645Z,100213.52
2019-01-28T19:37:39.934Z,100218.12
2019-01-28T19:40:08.878Z,100216.50
2019-01-28T19:42:36.088Z,100229.47
2019-01-28T19:45:05.585Z,100225.28
2019-01-28T19:47:33.169Z,100226.67
2019-01-28T19:50:01.693Z,100222.58
2019-01-28T19:52:29.073Z,100230.20
2019-01-28T19:54:56.435Z,100228.15
2019-01-28T19:57:23.693Z,100236.95
2019-01-28T19:59:50.931Z,100235.18
2019-01-28T20:02:18.243Z,100242.42
2019-01-28T20:04:45.594Z,100241.45
2019-01-28T20:07:12.825Z,100245.14
2019-01-28T20:09:40.054Z,100246.95
2019-01-28T20:12:07.323Z,100243.55
2019-01-28T20:14:34.810Z,100245.02
2019-01-28T20:17:02.200Z,100248.98
2019-01-28T20:19:29.428Z,100252.73
2019-01-28T20:22:15.371Z,100253.56
2019-01-28T20:24:42.779Z,100259.24
2019-01-28T20:27:10.168Z,100260.46
2019-01-28T20:29:37.391Z,100261.82
2019-01-28T20:32:04.902Z,100265.48
2019-01-28T20:34:32.168Z,100269.30
2019-01-28T20:36:59.498Z,100260.53
2019-01-28T20:39:26.750Z,100267.27
2019-01-28T20:41:53.969Z,100273.86
2019-01-28T20:44:21.356Z,100281.78
2019-01-28T20:46:48.731Z,100298.05
2019-01-28T20:49:16.068Z,100291.84
2019-01-28T20:51:43.401Z,100294.77
2019-01-28T20:54:10.624Z,100292.67
2019-01-28T20:56:37.922Z,100303.20
2019-01-28T20:59:05.344Z,100325.06
2019-01-28T21:01:32.717Z,100327.67
2019-01-28T21:04:00.038Z,100329.22
2019-01-28T21:06:27.305Z,100319.73
2019-01-28T21:08:54.528Z,100325.98
2019-01-28T21:11:21.778Z,100325.34
2019-01-28T21:13:48.984Z,100323.38
2019-01-28T21:16:16.198Z,100320.78
2019-01-28T21:18:43.464Z,100323.18
2019-01-28T21:21:10.678Z,100326.27
2019-01-28T21:23:37.886Z,100335.28
2019-01-28T21:26:05.233Z,100335.70
2019-01-28T21:28:32.470Z,100339.75
2019-01-28T21:30:59.677Z,100335.61
2019-01-28T21:33:26.910Z,100332.11
2019-01-28T21:36:19.576Z,100344.06
2019-01-28T21:38:51.124Z,100347.34
2019-01-28T21:41:18.331Z,100344.01
2019-01-28T21:43:45.585Z,100343.42
2019-01-28T21:46:12.817Z,100342.61
2019-01-28T21:48:40.071Z,100344.88
2019-01-28T21:51:07.938Z,100341.38
2019-01-28T21:53:35.181Z,100341.38
2019-01-28T21:56:02.507Z,100342.27
2019-01-28T21:58:29.987Z,100353.83
2019-01-28T22:00:57.188Z,100353.33
2019-01-28T22:03:25.083Z,100345.70
2019-01-28T22:05:52.529Z,100350.40
2019-01-28T22:08:19.723Z,100353.52
2019-01-28T22:10:46.996Z,100351.55
2019-01-28T22:13:14.321Z,100355.63
2019-01-28T22:15:41.595Z,100354.65
2019-01-28T22:18:08.835Z,100360.92
2019-01-28T22:20:36.080Z,100358.72
2019-01-28T22:23:03.705Z,100360.66
2019-01-28T22:25:30.922Z,100356.18
2019-01-28T22:27:58.171Z,100354.02
2019-01-28T22:30:25.441Z,100362.55
2019-01-28T22:32:55.503Z,100370.68
2019-01-28T22:35:22.888Z,100367.66
2019-01-28T22:37:50.104Z,100373.91
2019-01-28T22:40:17.551Z,100368.87
2019-01-28T22:42:44.814Z,100387.10
2019-01-28T22:45:14.104Z,100391.88
2019-01-28T22:47:41.318Z,100388.63
2019-01-28T22:50:11.191Z,100392.80
2019-01-28T22:52:38.422Z,100397.42
2019-01-28T22:55:06.888Z,100392.70
2019-01-28T22:57:34.124Z,100401.38
2019-01-28T23:00:01.398Z,100397.95
2019-01-28T23:02:28.699Z,100400.06
2019-01-28T23:04:55.938Z,100403.37
2019-01-28T23:07:23.191Z,100402.73
2019-01-28T23:09:50.412Z,100396.78
2019-01-28T23:12:17.621Z,100405.16
2019-01-28T23:14:44.852Z,100410.22
2019-01-28T23:17:12.082Z,100406.63
2019-01-28T23:19:39.290Z,100410.72
2019-01-28T23:22:06.558Z,100413.33
2019-01-28T23:24:33.770Z,100417.70
2019-01-28T23:27:00.994Z,100410.36
2019-01-28T23:29:28.233Z,100415.19
2019-01-28T23:31:55.444Z,100412.91
2019-01-28T23:34:22.700Z,100415.52
2019-01-28T23:36:49.886Z,100414.27
2019-01-28T23:39:17.089Z,100416.49
2019-01-28T23:41:44.316Z,100418.03
2019-01-28T23:44:11.528Z,100421.61
2019-01-28T23:46:38.736Z,100417.88
2019-01-28T23:49:05.995Z,100418.20
2019-01-28T23:51:33.252Z,100424.66
2019-01-28T23:54:00.482Z,100417.31
2019-01-28T23:56:27.739Z,100414.97
2019-01-28T23:58:54.952Z,100418.52
